»·PEaware :: DAL213 KDEN-KEGE

DAL213 :: KDEN-KEGE

FLIGHT INFORMATION

Flight Status: Arrived
Operator:
Delta Air Lines
More flights by this operator :: More flights under this callsign
Pilot: Nicolas L. (9332)
Aircraft: BOEING 737-800
(B738)
More flights by this aircraft type
Origin: KDEN Denver Intl
United States
Destination: KEGE Eagle Co Regl
United States
More flights between these airports :: More routes between these airports
Route: +FOOOT3 RLG
File this flight plan on PilotEdge
Remarks: Live Streaming on Twith "DAL213" and YT
Altitude:
(Current/Filed)
22,000ft
Speed:
(Current/Filed)
400kts
Departed: 11-Jun-18 08:49 PM
Arrived: 11-Jun-18 09:14 PM
Distance/Time
Traveled:
839nm/0:25
Distance/Time
To Go:
Arrived

Flight Plot

Page will automatically refresh every two minutes.


Map Options




Map Legend


Flown Route
Filed Route
Departure Airport
Arrival Airport
Navaid (VOR, NDB)
Fix

Horizontal Profiles

Position Reports

Time Latitude Longitude Heading Altitude Ground
Speed
11-Jun-18 20:21 39.853324 -104.676198 0 5440ft 0kts
11-Jun-18 20:22 39.853324 -104.676198 0 5440ft 0kts
11-Jun-18 20:23 39.853324 -104.676198 0 5440ft 0kts
11-Jun-18 20:24 39.853324 -104.676198 0 5440ft 0kts
11-Jun-18 20:25 39.853324 -104.676198 0 5440ft 0kts
11-Jun-18 20:26 39.853324 -104.676198 0 5440ft 0kts
11-Jun-18 20:27 39.853324 -104.676198 0 5440ft 0kts
11-Jun-18 20:28 39.853324 -104.676198 0 5440ft 0kts
11-Jun-18 20:29 39.853324 -104.676198 0 5440ft 0kts
11-Jun-18 20:30 39.853324 -104.676198 0 5440ft 0kts
11-Jun-18 20:31 39.853318 -104.676198 0 5440ft 0kts
11-Jun-18 20:32 39.852687 -104.675826 305 5440ft 2kts
11-Jun-18 20:33 39.852657 -104.675767 301 5440ft 0kts
11-Jun-18 20:34 39.852657 -104.675767 301 5440ft 0kts
11-Jun-18 20:35 39.852657 -104.675767 301 5440ft 0kts
11-Jun-18 20:36 39.852657 -104.675767 301 5440ft 0kts
11-Jun-18 20:37 39.852657 -104.675767 301 5440ft 0kts
11-Jun-18 20:38 39.852657 -104.675767 301 5440ft 0kts
11-Jun-18 20:39 39.852657 -104.675767 301 5440ft 0kts
11-Jun-18 20:40 39.852657 -104.675767 301 5440ft 0kts
11-Jun-18 20:41 39.852713 -104.675883 301 5440ft 4kts
11-Jun-18 20:42 39.852385 -104.674262 92 5440ft 14kts
11-Jun-18 20:43 39.852339 -104.668860 90 5440ft 10kts
11-Jun-18 20:44 39.852486 -104.665406 59 5440ft 6kts
11-Jun-18 20:45 39.853334 -104.662376 10 5440ft 13kts
11-Jun-18 20:46 39.857128 -104.662308 1 5440ft 11kts
11-Jun-18 20:47 39.861077 -104.661828 80 5440ft 9kts
11-Jun-18 20:48 39.861082 -104.661362 90 5440ft 9kts
11-Jun-18 20:49 39.844854 -104.660350 178 5443ft 164kts
11-Jun-18 20:50 39.807819 -104.697046 276 7875ft 231kts
11-Jun-18 20:51 39.847777 -104.775844 301 9944ft 295kts
11-Jun-18 20:52 39.893402 -104.867872 300 10103ft 321kts
11-Jun-18 20:53 39.940651 -104.976392 286 11309ft 353kts
11-Jun-18 20:54 39.958808 -105.100408 276 14640ft 349kts
11-Jun-18 20:55 39.973909 -105.227015 276 17500ft 358kts
11-Jun-18 20:56 39.983891 -105.357410 266 20123ft 367kts
11-Jun-18 20:57 39.980172 -105.492767 266 22196ft 384kts
11-Jun-18 20:58 39.975925 -105.634279 266 22327ft 392kts
11-Jun-18 20:59 39.972709 -105.776103 267 22388ft 391kts
11-Jun-18 21:00 39.974060 -105.918243 272 22373ft 392kts
11-Jun-18 21:01 39.982120 -106.056327 272 20634ft 372kts
11-Jun-18 21:02 39.988238 -106.169111 271 19070ft 374kts
11-Jun-18 21:03 39.995396 -106.303257 271 17314ft 356kts
11-Jun-18 21:04 39.992406 -106.417489 241 15732ft 286kts
11-Jun-18 21:05 39.931367 -106.471360 203 14831ft 261kts
11-Jun-18 21:06 39.850862 -106.506354 201 14209ft 260kts
11-Jun-18 21:07 39.782876 -106.535344 202 13847ft 254kts
11-Jun-18 21:08 39.715764 -106.567295 208 13081ft 256kts
11-Jun-18 21:09 39.689968 -106.626767 261 12182ft 230kts
11-Jun-18 21:10 39.678379 -106.704715 256 10687ft 200kts
11-Jun-18 21:11 39.665934 -106.771822 254 9212ft 168kts
11-Jun-18 21:12 39.654200 -106.829970 258 8012ft 169kts
11-Jun-18 21:13 39.645866 -106.888579 262 6830ft 162kts
11-Jun-18 21:14 39.641749 -106.925577 259 6524ft 29kts
11-Jun-18 21:15 39.640504 -106.926530 82 6524ft 15kts
11-Jun-18 21:16 39.640943 -106.922443 81 6524ft 13kts
11-Jun-18 21:17 39.641430 -106.918133 81 6524ft 14kts
11-Jun-18 21:18 39.640966 -106.915500 171 6524ft 5kts
11-Jun-18 21:19 39.640702 -106.915452 171 6524ft 0kts
11-Jun-18 21:20 39.640702 -106.915452 171 6524ft 0kts
11-Jun-18 21:27 37.613818 -122.389600 119 22ft 0kts

Navigation Log

Ident Type
Flight plan parsing failed, navigation log unavailable